Accueil
METAR-TAF:

METAR-TAF

Aéroports :

Base aérienne de Beauvechain

Beauvechain, Belgique

latitude: 50-45N, longitude: 004-46E, altitude: 105 m

Observation

Le bulletin a été fait il y a 36 minutes, à 22:25 UTC
Vent 3 kt de ouest/sud-ouest
Température 16°C
Humidité 68%
Pression 1022 hPa
Visibilité 10 km ou plus

METAR: EBBE 172225Z AUTO 24003KT 9999 NCD 16/10 Q1022 BLU

Heure: 01:01 (23:01 UTC)

Prévision

Le bulletin a été fait il y a 7 heures et 20 minutes, à 15:41 UTC
Prévision valable du 17 à 19 UTC au 18 à 07 UTC
Vent 6 kt de nord-ouest
Visibilité 10 km ou plus
Quelques nuages à une hauteur de 3500 ft
Nuages épars à une hauteur de 4000 ft
Evoluant progressivement
du 18 à 00 UTC au 18 à 02 UTC
Vent 3 kt de sud-ouest

TAF: EBBE 171541Z 1719/1807 32006KT 9999 FEW035 SCT040 BECMG 1800/1802 22003KT

Observations et prévisions météorologiques de plus de 4000 aéroports (messages METAR et TAF).

Les stations disponibles sont représentées par des disques jaunes et rouges sur la carte.

Passer la souris dessus pour voir le nom de la station.

Cliquer dessus pour voir les observations et prévisions météorologiques.

Pour changer de carte: cliquez sur les boutons verts avec une croix noire pour zoomer, sur le bouton vert avec un tiret pour effectuer un zoom arrière, ou sur les flèches vertes pour les cartes adjacentes.


METAR-TAF: